Flight Track Log - Related Links

Times and Time Zones

All times are in EST time to prevent confusion due to time zone crossing. See the SWA3013 flight status page for this flight to view local times or setup timezone preferences in your user account.

Time Position Orientation Groundspeed Altitude Reporting Facility
EST Latitude Longitude Course Direction KTS MPH feet Rate Location/Type
Sun 19:52:37 39.8833 -104.5833 90° East 191 220 6,700  Level Denver TRACON
Sun 19:53:37 39.8833 -104.5000 90° East 251 289 10,000 2,900 Climbing Denver TRACON
Sun 19:54:37 39.8833 -104.3833 90° East 316 364 12,500 2,816 Climbing Denver TRACON
Sun 19:55:15 39.8778 -104.3061 95° East 342 394 14,600 3,054 Climbing Denver Center
Sun 19:56:29 39.8792 -104.1783 89° East 354 407 18,200 2,889 Climbing Denver Center
Sun 19:57:30 39.8800 -104.0306 90° East 382 440 21,100 2,829 Climbing Denver Center
Sun 19:58:32 39.8814 -103.8489 89° East 410 472 24,000 2,274 Climbing Denver Center
Sun 19:59:34 39.8839 -103.6981 89° East 424 488 25,800 1,742 Climbing Denver Center
Sun 20:00:36 39.8978 -103.5325 84° East 458 527 27,600 1,659 Climbing Denver Center
Sun 20:01:37 39.9100 -103.3567 85° East 479 551 29,200 1,610 Climbing Denver Center
Sun 20:02:39 39.9225 -103.1750 85° East 495 570 30,900 1,548 Climbing Denver Center
Sun 20:03:41 39.9350 -102.9881 85° East 508 585 32,400 1,024 Climbing Denver Center
Sun 20:04:42 39.9461 -102.8264 85° East 526 605 33,000 927 Climbing Denver Center
Sun 20:05:44 39.9608 -102.5833 85° East 539 620 34,300 1,500 Climbing Denver Center
Sun 20:06:46 39.9744 -102.3689 85° East 535 616 36,100 1,597 Climbing Denver Center
Sun 20:07:48 39.9989 -102.1836 80° East 544 626 37,600 1,289 Climbing Denver Center
Sun 20:09:01 40.0264 -101.9744 80° East 526 605 39,000 622 Climbing Denver Center
Sun 20:10:03 40.0547 -101.7689 80° East 520 598 39,000  Level Denver Center
Sun 20:11:05 40.0817 -101.5628 80° East 518 596 39,000  Level Denver Center
Sun 20:12:06 40.1006 -101.4150 80° East 519 597 39,000  Level Denver Center
Sun 20:13:08 40.1317 -101.1744 80° East 526 605 39,000  Level Denver Center
Sun 20:14:22 40.1539 -100.9956 81° East 525 604 39,000  Level Denver Center
Sun 20:15:24 40.1839 -100.7569 81° East 526 605 39,000  Level Denver Center
Sun 20:16:38 40.2181 -100.5211 79° East 522 601 39,000  Level Denver Center
Sun 20:17:52 40.2544 -100.3500 74° East 513 590 39,000  Level Denver Center
Sun 20:18:54 40.3014 -100.1169 75° East 520 598 39,000  Level Denver Center
Sun 20:19:55 40.3361 -99.9417 75° East 521 600 39,000  Level Denver Center
Sun 20:20:57 40.3767 -99.7350 75° East 522 601 39,000  Level Denver Center
Sun 20:21:58 40.4061 -99.5858 75° East 526 605 39,000  Level Denver Center
Sun 20:23:00 40.4425 -99.4014 75° East 525 604 39,000  Level Denver Center
Sun 20:24:02 40.4856 -99.1778 76° East 528 608 39,000  Level Denver Center
Sun 20:25:04 40.5208 -98.9922 76° East 527 606 39,000  Level Denver Center
Sun 20:25:58 40.5556 -98.8069 76° East 529 609 39,000  Level Minneapolis Center
Sun 20:26:59 40.5906 -98.6206 76° East 529 609 39,000  Level Minneapolis Center
Sun 20:28:00 40.6256 -98.4339 76° East 529 609 39,000  Level Minneapolis Center
Sun 20:29:02 40.6597 -98.2492 76° East 526 605 39,000  Level Minneapolis Center
Sun 20:30:03 40.6925 -98.0639 77° East 524 603 39,000  Level Minneapolis Center
Sun 20:31:05 40.7328 -97.8406 77° East 524 603 39,000  Level Minneapolis Center
Sun 20:32:06 40.7653 -97.6558 77° East 522 601 39,000  Level Minneapolis Center
Sun 20:33:08 40.7978 -97.4697 77° East 521 600 39,000  Level Minneapolis Center
Sun 20:34:21 40.8278 -97.3047 76° East 522 601 39,000  Level Minneapolis Center
Sun 20:35:23 40.8733 -97.0436 77° East 523 602 39,000  Level Minneapolis Center
Sun 20:36:24 40.9039 -96.8544 78° East 527 606 39,000  Level Minneapolis Center
Sun 20:37:26 40.9339 -96.6656 78° East 527 606 39,000  Level Minneapolis Center
Sun 20:38:27 40.9608 -96.4756 79° East 528 608 39,000  Level Minneapolis Center
Sun 20:39:29 40.9867 -96.2864 80° East 528 608 39,000  Level Minneapolis Center
Sun 20:40:30 41.0111 -96.0986 80° East 526 605 39,000  Level Minneapolis Center
Sun 20:41:31 41.0367 -95.9128 80° East 522 601 39,000  Level Minneapolis Center
Sun 20:42:33 41.0653 -95.6886 80° East 521 600 39,000  Level Minneapolis Center
Sun 20:43:34 41.0886 -95.5006 81° East 522 601 39,000  Level Minneapolis Center
Sun 20:44:36 41.1131 -95.3122 80° East 522 601 39,000  Level Minneapolis Center
Sun 20:45:37 41.1372 -95.1233 80° East 522 601 39,000  Level Minneapolis Center
Sun 20:46:39 41.1600 -94.9336 81° East 522 601 39,000  Level Minneapolis Center
Sun 20:47:40 41.1831 -94.7444 81° East 522 601 39,000  Level Minneapolis Center
Sun 20:48:42 41.2056 -94.5561 81° East 520 598 39,000  Level Minneapolis Center
Sun 20:49:44 41.2314 -94.3297 81° East 518 596 39,000  Level Minneapolis Center
Sun 20:50:45 41.2503 -94.1628 81° East 517 595 39,000  Level Minneapolis Center
Sun 20:51:47 41.2733 -93.9742 81° East 518 596 39,000  Level Minneapolis Center
Sun 20:52:48 41.2936 -93.7856 82° East 519 597 39,000  Level Minneapolis Center
Sun 20:53:50 41.3192 -93.5561 81° East 522 601 39,000 49 Level Minneapolis Center
Sun 20:54:51 41.3428 -93.3589 81° East 532 612 39,100 976 Climbing Minneapolis Center
Sun 20:55:53 41.3633 -93.1644 82° East 534 615 41,000 927 Climbing Minneapolis Center
Sun 20:56:54 41.3836 -92.9772 82° East 522 601 41,000  Level Minneapolis Center
Sun 20:57:56 41.4039 -92.7900 82° East 515 593 41,000  Level Minneapolis Center
Sun 20:58:57 41.4228 -92.6017 82° East 515 593 41,000  Level Minneapolis Center
Sun 20:59:15 41.4306 -92.5239 82° East 517 595 41,000  Level Chicago Center
Sun 21:00:16 41.4486 -92.3456 82° East 520 598 41,000  Level Chicago Center
Sun 21:02:02 41.4831 -91.9928 82° East 519 597 41,000  Level Minneapolis Center
Sun 21:02:19 41.4847 -91.9686 85° East 519 597 41,000  Level Chicago Center
Sun 21:03:21 41.5069 -91.7400 83° East 521 600 41,000  Level Chicago Center
Sun 21:04:22 41.5208 -91.5492 84° East 522 601 41,000  Level Chicago Center
Sun 21:05:24 41.5250 -91.3567 88° East 523 602 41,000  Level Chicago Center
Sun 21:06:25 41.5281 -91.1642 89° East 524 603 41,000  Level Chicago Center
Sun 21:07:27 41.5319 -90.9731 88° East 522 601 41,000  Level Chicago Center
Sun 21:08:28 41.5347 -90.7831 89° East 519 597 41,000  Level Chicago Center
Sun 21:09:30 41.5375 -90.5592 89° East 518 596 41,000  Level Chicago Center
Sun 21:10:31 41.5397 -90.3669 89° East 517 595 41,000  Level Chicago Center
Sun 21:11:33 41.5425 -90.1767 89° East 513 590 41,000  Level Chicago Center
Sun 21:12:34 41.5439 -89.9842 89° East 515 593 41,000  Level Chicago Center
Sun 21:13:36 41.5456 -89.7914 89° East 517 595 41,000  Level Chicago Center
Sun 21:14:37 41.5472 -89.5986 89° East 517 595 41,000  Level Chicago Center
Sun 21:15:39 41.5494 -89.3961 89° East 517 595 41,000  Level Chicago Center
Sun 21:16:40 41.5492 -89.2044 90° East 518 596 41,000  Level Chicago Center
Sun 21:17:41 41.5483 -89.0125 90° East 518 596 41,000  Level Chicago Center
Sun 21:18:43 41.5481 -88.8200 90° East 520 598 41,000  Level Chicago Center
Sun 21:19:44 41.5483 -88.5914 90° East 518 596 41,000  Level Chicago Center
Sun 21:20:46 41.5464 -88.3994 91° East 518 596 41,000  Level Chicago Center
Sun 21:21:47 41.5581 -88.2114 85° East 508 585 41,000  Level Chicago Center
Sun 21:22:48 41.5814 -88.0225 81° East 505 581 41,000  Level Chicago Center
Sun 21:23:50 41.6039 -87.8325 81° East 509 586 41,000  Level Chicago Center
Sun 21:24:51 41.6244 -87.6433 82° East 512 589 41,000  Level Chicago Center
Sun 21:25:52 41.6464 -87.4547 81° East 513 590 41,000  Level Chicago Center
Sun 21:26:54 41.6675 -87.2667 81° East 514 592 41,000  Level Chicago Center
Sun 21:27:55 41.6878 -87.0806 82° East 509 586 41,000  Level Chicago Center
Sun 21:28:56 41.7081 -86.8967 82° East 504 580 41,000  Level Chicago Center
Sun 21:29:58 41.7292 -86.6872 82° East 503 579 41,000  Level Chicago Center
Sun 21:30:59 41.7492 -86.5022 82° East 503 579 41,000  Level Chicago Center
Sun 21:32:00 41.7675 -86.3175 82° East 502 578 41,000  Level Chicago Center
Sun 21:33:01 41.7872 -86.1336 82° East 501 577 41,000  Level Chicago Center
Sun 21:34:03 41.8064 -85.9489 82° East 500 575 41,000  Level Chicago Center
Sun 21:35:04 41.8256 -85.7631 82° East 500 575 41,000  Level Chicago Center
Sun 21:36:05 41.8439 -85.5758 82° East 501 577 41,000  Level Chicago Center
Sun 21:37:06 41.8619 -85.3911 82° East 497 572 41,000  Level Chicago Center
Sun 21:38:08 41.8800 -85.2022 83° East 499 574 41,000  Level Chicago Center
Sun 21:39:09 41.9017 -85.0083 81° East 499 574 41,000  Level Cleveland Center
Sun 21:40:09 41.9214 -84.8200 82° East 499 574 41,000  Level Cleveland Center
Sun 21:41:09 41.9403 -84.6369 82° East 499 574 41,000  Level Cleveland Center
Sun 21:42:09 41.9597 -84.4425 82° East 504 580 41,000  Level Cleveland Center
Sun 21:43:09 41.9722 -84.2533 85° East 504 580 41,000  Level Cleveland Center
Sun 21:44:09 41.9906 -84.0644 82° East 504 580 41,000  Level Cleveland Center
Sun 21:45:09 42.0086 -83.8753 83° East 504 580 41,000  Level Cleveland Center
Sun 21:46:09 42.0242 -83.6886 84° East 504 580 41,000  Level Cleveland Center
Sun 21:47:09 42.0417 -83.5022 83° East 504 580 41,000  Level Cleveland Center
Sun 21:48:09 42.0342 -83.2950 93° East 497 572 41,000  Level Cleveland Center
Sun 21:49:09 42.0214 -83.1267 96° East 502 578 41,000  Level Cleveland Center
Sun 21:50:09 42.0067 -82.9333 96° East 502 578 41,000  Level Cleveland Center
Sun 21:51:09 41.9917 -82.7483 96° East 502 578 41,000  Level Cleveland Center
Sun 21:52:09 41.9764 -82.5578 96° East 502 578 41,000  Level Cleveland Center
Sun 21:53:09 41.9606 -82.3675 96° East 502 578 41,000  Level Cleveland Center
Sun 21:54:09 41.9467 -82.1939 96° East 510 587 41,000  Level Cleveland Center
Sun 21:55:09 41.9283 -81.9897 97° East 510 587 41,000  Level Cleveland Center
Sun 21:56:09 41.9139 -81.7997 96° East 510 587 41,000  Level Cleveland Center
Sun 21:57:09 41.8969 -81.6097 97° East 510 587 41,000  Level Cleveland Center
Sun 21:58:09 41.8797 -81.4225 97° East 510 587 41,000  Level Cleveland Center
Sun 21:59:09 41.8603 -81.2189 97° East 505 581 41,000  Level Cleveland Center
Sun 22:00:09 41.8425 -81.0292 97° East 505 581 41,000  Level Cleveland Center
Sun 22:01:09 41.8242 -80.8339 97° East 505 581 41,000  Level Cleveland Center
Sun 22:02:09 41.8058 -80.6500 98° East 505 581 41,000  Level Cleveland Center
Sun 22:03:09 41.7869 -80.4578 97° East 505 581 41,000  Level Cleveland Center
Sun 22:04:09 41.7700 -80.2742 97° East 500 575 41,000  Level Cleveland Center
Sun 22:05:09 41.7483 -80.0878 99° East 505 581 41,000  Level Cleveland Center
Sun 22:06:09 41.7286 -79.8958 98° East 505 581 41,000  Level Cleveland Center
Sun 22:07:09 41.7131 -79.7292 97° East 505 581 41,000  Level Cleveland Center
Sun 22:08:09 41.6903 -79.5208 98° East 505 581 41,000  Level Cleveland Center
Sun 22:09:09 41.6717 -79.3350 98° East 505 581 41,000  Level Cleveland Center
Sun 22:10:09 41.6508 -79.1492 98° East 500 575 41,000  Level Cleveland Center
Sun 22:11:09 41.6297 -78.9636 99° East 500 575 41,000 -550 Level Cleveland Center
Sun 22:12:09 41.6081 -78.7781 99° East 500 575 39,900 -1,006 Descending Cleveland Center
Sun 22:13:56 41.5708 -78.4550 99° East 518 596 38,200 -945 Descending New York Center
Sun 22:14:54 41.5489 -78.2750 99° East 491 565 37,300 -908 Descending New York Center
Sun 22:15:55 41.5269 -78.0922 99° East 491 565 36,400 -950 Descending New York Center
Sun 22:16:54 41.5050 -77.9069 99° East 496 571 35,400 -950 Descending New York Center
Sun 22:17:55 41.4783 -77.7214 101° East 510 587 34,500 -950 Descending New York Center
Sun 22:18:54 41.4497 -77.5331 101° East 510 587 33,500 -908 Descending New York Center
Sun 22:19:54 41.4233 -77.3697 102° East 510 587 32,700 -900 Descending New York Center
Sun 22:20:54 41.3964 -77.1789 101° East 515 593 31,700 -836 Descending New York Center
Sun 22:21:56 41.3708 -76.9942 100° East 515 593 31,000 -344 Descending New York Center
Sun 22:22:56 41.3428 -76.8092 101° East 515 593 31,000 -958 Level New York Center
Sun 22:23:55 41.2997 -76.6311 108° East 515 593 29,100 -2,450 Descending New York Center
Sun 22:24:56 41.2519 -76.4558 110° East 510 587 26,100 -3,174 Descending New York Center
Sun 22:25:56 41.2006 -76.2667 110° East 503 579 22,700 -3,254 Descending New York Center
Sun 22:26:54 41.1542 -76.0978 110° East 496 571 19,700 -1,866 Descending New York Center
Sun 22:27:55 41.1114 -75.9344 109° East 477 549 19,000 -1,328 Descending New York Center
Sun 22:28:56 41.0681 -75.7744 110° East 465 535 17,000 -2,380 Descending New York Center
Sun 22:29:56 41.0319 -75.6425 110° East 445 512 14,200 -2,269 Descending New York Center
Sun 22:30:55 40.9917 -75.5075 112° Southeast 408 470 12,500 -1,361 Descending New York Center
Sun 22:31:55 40.9553 -75.3706 109° East 373 429 11,500 -992 Descending New York Center
Sun 22:32:56 40.9242 -75.2639 111° Southeast 348 400 10,500 -756 Descending New York Center
Sun 22:33:54 40.8947 -75.1578 110° East 322 371 10,000 -814 Descending New York Center
Sun 22:34:54 40.8867 -75.0364 95° East 296 341 8,900 -984 Descending New York Center
Sun 22:35:56 40.8822 -74.9236 93° East 296 341 8,000 -942 Descending New York Center
Sun 22:36:55 40.8778 -74.8192 93° East 312 359 7,000 -950 Descending New York Center
Sun 22:37:56 40.8733 -74.6981 93° East 312 359 6,100 -893 Descending New York Center
Sun 22:38:56 40.8703 -74.6017 92° East 307 353 5,200 -1,000 Descending New York Center
Sun 22:39:26 40.8667 -74.5333 94° East 289 333 4,600 -1,063 Descending New York TRACON
Sun 22:40:32 40.8667 -74.4167 90° East 284 327 3,500 -800 Descending New York TRACON
Sun 22:41:26 40.8667 -74.3333 90° East 273 314 3,000 -263 Descending New York TRACON
Sun 22:42:26 40.8500 -74.2333 102° East 238 274 3,000 -200 Level New York TRACON
Sun 22:43:26 40.8500 -74.1500 90° East 226 260 2,600 -300 Descending New York TRACON
Sun 22:44:26 40.8167 -74.1167 143° Southeast 192 221 2,400 -619 Descending New York TRACON
Sun 22:45:32 40.7667 -74.1167 180° South 162 186 1,300 -810 Descending New York TRACON
Sun 22:46:32 40.7333 -74.1500 217° Southwest 118 136 700 -600 Descending New York TRACON
Sun 22:49:00 40.6925 -74.1687 174° South  Level Estimated
Sun 22:56:00 40.6925 -74.1687 174° South  Level Estimated

Login

Don't have an account? Register now (free) for customized features, flight alerts, and more!